Time;durP1;ratioP1;P1;durP2;ratioP2;P2;SDS_P1;SDS_P2;PMS_P1;PMS_P2;Temp;Humidity;BMP_temperature;BMP_pressure;BME280_temperature;BME280_humidity;BME280_pressure;Samples;Min_cycle;Max_cycle;Signal;HPM_P1;HPM_P2
2022/08/16 00:00:17;;;;;;;2.25;1.90;;;;;;;-148.56;100.00;61375.16;4913896;28;21017;-25
2022/08/16 00:02:42;;;;;;;3.03;1.90;;;;;;;-148.56;100.00;61375.16;4922130;28;20176;-29
2022/08/16 00:05:09;;;;;;;4.45;1.90;;;;;;;-148.56;100.00;61375.16;4917051;28;20913;-25
2022/08/16 00:07:34;;;;;;;3.05;1.77;;;;;;;-148.56;100.00;61375.16;4915432;28;20850;-30
2022/08/16 00:10:00;;;;;;;2.50;1.88;;;;;;;-148.56;100.00;61375.16;4910292;28;20570;-27
2022/08/16 00:12:26;;;;;;;2.88;1.77;;;;;;;-148.56;100.00;61375.16;4911487;28;20033;-28
2022/08/16 00:14:52;;;;;;;1.73;1.63;;;;;;;-148.56;100.00;61375.16;4921846;28;20160;-30
2022/08/16 00:17:17;;;;;;;3.10;1.90;;;;;;;-148.56;100.00;61375.16;4921688;28;20034;-27
2022/08/16 00:19:43;;;;;;;2.95;2.20;;;;;;;-148.56;100.00;61375.16;4922272;28;20050;-28
2022/08/16 00:22:09;;;;;;;4.32;1.90;;;;;;;-148.56;100.00;61375.16;4913331;28;20046;-32
2022/08/16 00:24:34;;;;;;;4.35;2.05;;;;;;;-148.56;100.00;61375.16;4917722;28;20578;-30
2022/08/16 00:27:00;;;;;;;3.08;2.15;;;;;;;-148.56;100.00;61375.16;4921686;28;20049;-25
2022/08/16 00:29:26;;;;;;;3.47;2.30;;;;;;;-148.56;100.00;61375.16;4921198;28;20124;-32
2022/08/16 00:31:51;;;;;;;3.17;2.13;;;;;;;-148.56;100.00;61375.16;4918471;28;20848;-28
2022/08/16 00:34:17;;;;;;;3.25;1.90;;;;;;;-148.56;100.00;61375.16;4921224;28;20711;-27
2022/08/16 00:36:45;;;;;;;4.07;1.80;;;;;;;-148.56;100.00;61375.16;4926231;28;20038;-27
2022/08/16 00:39:12;;;;;;;2.85;2.13;;;;;;;-148.56;100.00;61375.16;4913407;28;20061;-27
2022/08/16 00:41:37;;;;;;;4.30;1.95;;;;;;;-148.56;100.00;61375.16;4928977;28;20085;-32
2022/08/16 00:44:09;;;;;;;3.15;1.85;;;;;;;-148.56;100.00;61375.16;4926711;28;20109;-30
2022/08/16 00:46:36;;;;;;;4.68;2.00;;;;;;;-148.56;100.00;61375.16;4919355;28;21163;-30
2022/08/16 00:49:05;;;;;;;3.05;2.10;;;;;;;-148.56;100.00;61375.16;4934304;28;20409;-30
2022/08/16 00:51:30;;;;;;;3.67;2.20;;;;;;;-148.56;100.00;61375.16;4927669;28;20030;-29
2022/08/16 00:53:56;;;;;;;2.60;1.80;;;;;;;-148.56;100.00;61375.16;4921990;28;20023;-23
2022/08/16 00:56:23;;;;;;;2.63;1.88;;;;;;;-148.56;100.00;61375.16;4918710;28;20026;-28
2022/08/16 00:58:49;;;;;;;4.57;2.33;;;;;;;-148.56;100.00;61375.16;4923492;28;20026;-25
2022/08/16 01:01:15;;;;;;;3.65;2.20;;;;;;;-148.56;100.00;61375.16;4917581;28;20034;-27
2022/08/16 01:03:41;;;;;;;3.15;2.10;;;;;;;-148.56;100.00;61375.16;4930437;28;20955;-32
2022/08/16 01:06:07;;;;;;;3.50;2.45;;;;;;;-148.56;100.00;61375.16;4902269;28;20669;-25
2022/08/16 01:08:34;;;;;;;3.53;2.20;;;;;;;-148.56;100.00;61375.16;4921248;28;20038;-24
2022/08/16 01:10:59;;;;;;;3.70;2.30;;;;;;;-148.56;100.00;61375.16;4915067;28;20037;-25
2022/08/16 01:13:26;;;;;;;2.63;2.10;;;;;;;-148.56;100.00;61375.16;4901865;28;20035;-27
2022/08/16 01:15:56;;;;;;;3.53;2.38;;;;;;;-148.56;100.00;61375.16;4918315;28;20034;-27
2022/08/16 01:18:23;;;;;;;6.60;2.40;;;;;;;-148.56;100.00;61375.16;4924242;28;20140;-25
2022/08/16 01:20:52;;;;;;;3.88;2.40;;;;;;;-148.56;100.00;61375.16;4913723;28;20222;-28
2022/08/16 01:23:44;;;;;;;2.78;2.15;;;;;;;-148.56;100.00;61375.16;4910279;28;20778;-29
2022/08/16 01:26:09;;;;;;;3.40;2.25;;;;;;;-148.56;100.00;61375.16;4922991;28;20566;-31
2022/08/16 01:28:35;;;;;;;4.40;2.33;;;;;;;-148.56;100.00;61375.16;4915480;28;20108;-33
2022/08/16 01:31:00;;;;;;;2.33;1.95;;;;;;;-148.56;100.00;61375.16;4925484;28;20923;-29
2022/08/16 01:33:25;;;;;;;2.90;2.10;;;;;;;-148.56;100.00;61375.16;4917305;28;20034;-28
2022/08/16 01:35:56;;;;;;;4.75;2.00;;;;;;;-148.56;100.00;61375.16;4928670;28;20060;-29
2022/08/16 01:38:34;;;;;;;3.90;2.00;;;;;;;-148.56;100.00;61375.16;4899914;28;20023;-28
2022/08/16 01:41:09;;;;;;;2.47;1.85;;;;;;;-148.56;100.00;61375.16;4921132;28;20121;-30
2022/08/16 01:43:35;;;;;;;5.63;2.20;;;;;;;-148.56;100.00;61375.16;4923773;28;20502;-30
2022/08/16 01:46:02;;;;;;;4.18;2.30;;;;;;;-148.56;100.00;61375.16;4922244;28;20243;-33
2022/08/16 01:48:29;;;;;;;4.35;2.17;;;;;;;-148.56;100.00;61375.16;4933011;28;20129;-27
2022/08/16 01:50:55;;;;;;;3.83;1.98;;;;;;;-148.56;100.00;61375.16;4922758;28;20463;-31
2022/08/16 01:53:20;;;;;;;3.47;2.25;;;;;;;-148.56;100.00;61375.16;4933022;28;20872;-32
2022/08/16 01:55:46;;;;;;;4.68;2.35;;;;;;;-148.56;100.00;61375.16;4933697;28;20531;-30
2022/08/16 01:58:13;;;;;;;2.33;2.08;;;;;;;-148.56;100.00;61375.16;4926116;28;20034;-33
2022/08/16 02:00:39;;;;;;;2.97;2.05;;;;;;;-148.56;100.00;61375.16;4928183;28;20033;-30
2022/08/16 02:03:04;;;;;;;2.97;1.90;;;;;;;-148.56;100.00;61375.16;4926438;28;20483;-32
2022/08/16 02:05:29;;;;;;;3.03;2.00;;;;;;;-148.56;100.00;61375.16;4935996;28;20050;-31
2022/08/16 02:07:56;;;;;;;4.60;2.10;;;;;;;-148.56;100.00;61375.16;4928211;28;22650;-28
2022/08/16 02:10:22;;;;;;;3.95;1.98;;;;;;;-148.56;100.00;61375.16;4919125;28;20053;-32
2022/08/16 02:12:48;;;;;;;5.88;2.33;;;;;;;-148.56;100.00;61375.16;4923451;28;20052;-31
2022/08/16 02:15:14;;;;;;;2.30;1.92;;;;;;;-148.56;100.00;61375.16;4928618;28;20514;-31
2022/08/16 02:17:39;;;;;;;4.40;2.22;;;;;;;-148.56;100.00;61375.16;4930330;28;20037;-29
2022/08/16 02:20:05;;;;;;;4.13;2.00;;;;;;;-148.56;100.00;61375.16;4934348;28;20501;-28
2022/08/16 02:22:30;;;;;;;2.83;2.08;;;;;;;-148.56;100.00;61375.16;4944530;28;23658;-33
2022/08/16 02:24:56;;;;;;;3.30;2.20;;;;;;;-148.56;100.00;61375.16;4921342;28;20042;-31
2022/08/16 02:27:21;;;;;;;2.67;1.92;;;;;;;-148.56;100.00;61375.16;4921935;28;20054;-33
2022/08/16 02:29:46;;;;;;;2.53;2.10;;;;;;;-148.56;100.00;61375.16;4924958;28;21206;-31
2022/08/16 02:32:13;;;;;;;3.28;2.17;;;;;;;-148.56;100.00;61375.16;4926501;28;20038;-30
2022/08/16 02:34:38;;;;;;;5.05;2.35;;;;;;;-148.56;100.00;61375.16;4924136;28;20088;-27
2022/08/16 02:37:04;;;;;;;3.92;2.10;;;;;;;-148.56;100.00;61375.16;4928227;28;20100;-30
2022/08/16 02:39:29;;;;;;;4.25;2.42;;;;;;;-148.56;100.00;61375.16;4925737;28;20026;-30
2022/08/16 02:41:55;;;;;;;3.92;2.20;;;;;;;-148.56;100.00;61375.16;4917046;28;20034;-27
2022/08/16 02:44:22;;;;;;;4.65;2.17;;;;;;;-148.56;100.00;61375.16;4925464;28;20928;-26
2022/08/16 02:46:47;;;;;;;3.28;2.40;;;;;;;-148.56;100.00;61375.16;4928351;28;20806;-28
2022/08/16 02:49:12;;;;;;;3.28;2.15;;;;;;;-148.56;100.00;61375.16;4930778;28;20145;-27
2022/08/16 02:51:38;;;;;;;3.70;2.10;;;;;;;-148.56;100.00;61375.16;4932290;28;20428;-30
2022/08/16 02:54:04;;;;;;;5.15;2.42;;;;;;;-148.56;100.00;61375.16;4929971;28;20038;-24
2022/08/16 02:56:30;;;;;;;3.33;2.22;;;;;;;-148.56;100.00;61375.16;4919489;28;20026;-30
2022/08/16 02:58:55;;;;;;;3.50;2.22;;;;;;;-148.56;100.00;61375.16;4929562;28;20124;-32
2022/08/16 03:01:24;;;;;;;2.45;2.10;;;;;;;-148.56;100.00;61375.16;4930410;28;20815;-27
2022/08/16 03:03:50;;;;;;;4.85;2.22;;;;;;;-148.56;100.00;61375.16;4933421;28;22402;-28
2022/08/16 03:06:19;;;;;;;3.17;2.10;;;;;;;-148.56;100.00;61375.16;4925266;28;20727;-26
2022/08/16 03:08:45;;;;;;;3.08;1.92;;;;;;;-148.56;100.00;61375.16;4917518;28;20042;-26
2022/08/16 03:11:11;;;;;;;3.50;1.90;;;;;;;-148.56;100.00;61375.16;4921172;28;20884;-29
2022/08/16 03:13:37;;;;;;;2.92;2.10;;;;;;;-148.56;100.00;61375.16;4926843;28;20133;-26
2022/08/16 03:16:03;;;;;;;2.55;2.03;;;;;;;-148.56;100.00;61375.16;4929259;28;20034;-28
2022/08/16 03:18:28;;;;;;;4.82;2.35;;;;;;;-148.56;100.00;61375.16;4924219;28;20034;-30
2022/08/16 03:20:55;;;;;;;4.00;2.17;;;;;;;-148.56;100.00;61375.16;4918891;28;20881;-30
2022/08/16 03:23:20;;;;;;;4.65;2.30;;;;;;;-148.56;100.00;61375.16;4920499;28;20430;-30
2022/08/16 03:25:46;;;;;;;4.05;2.42;;;;;;;-148.56;100.00;61375.16;4932269;28;20794;-29
2022/08/16 03:28:11;;;;;;;3.45;2.13;;;;;;;-148.56;100.00;61375.16;4911301;28;20714;-31
2022/08/16 03:30:37;;;;;;;3.58;2.17;;;;;;;-148.56;100.00;61375.16;4925857;28;20045;-28
2022/08/16 03:33:02;;;;;;;3.92;2.42;;;;;;;-148.56;100.00;61375.16;4924261;28;20077;-28
2022/08/16 03:35:29;;;;;;;4.75;2.40;;;;;;;-148.56;100.00;61375.16;4922468;28;20030;-27
2022/08/16 03:37:56;;;;;;;4.00;2.30;;;;;;;-148.56;100.00;61375.16;4918975;28;20062;-29
2022/08/16 03:40:22;;;;;;;3.13;2.10;;;;;;;-148.56;100.00;61375.16;4923263;28;20121;-35
2022/08/16 03:42:47;;;;;;;3.38;2.25;;;;;;;-148.56;100.00;61375.16;4920286;28;20128;-30
2022/08/16 03:45:13;;;;;;;3.40;2.33;;;;;;;-148.56;100.00;61375.16;4925270;28;20114;-29
2022/08/16 03:47:39;;;;;;;4.22;1.90;;;;;;;-148.56;100.00;61375.16;4927306;28;20898;-33
2022/08/16 03:50:05;;;;;;;3.83;2.20;;;;;;;-148.56;100.00;61375.16;4924332;28;20070;-28
2022/08/16 03:52:31;;;;;;;3.08;2.10;;;;;;;-148.56;100.00;61375.16;4934878;28;20038;-31
2022/08/16 03:54:56;;;;;;;2.38;2.10;;;;;;;-148.56;100.00;61375.16;4916352;28;20396;-33
2022/08/16 03:57:22;;;;;;;2.97;2.05;;;;;;;-148.56;100.00;61375.16;4930338;28;20829;-27
2022/08/16 03:59:50;;;;;;;3.83;1.98;;;;;;;-148.56;100.00;61375.16;4925036;28;20567;-31
2022/08/16 04:02:17;;;;;;;3.70;2.45;;;;;;;-148.56;100.00;61375.16;4927458;28;20170;-30
2022/08/16 04:04:43;;;;;;;2.15;1.90;;;;;;;-148.56;100.00;61375.16;4925744;28;20034;-32
2022/08/16 04:07:08;;;;;;;2.75;2.13;;;;;;;-148.56;100.00;61375.16;4916560;28;20188;-31
2022/08/16 04:09:34;;;;;;;3.35;2.30;;;;;;;-148.56;100.00;61375.16;4922655;28;20030;-29
2022/08/16 04:11:59;;;;;;;3.10;2.30;;;;;;;-148.56;100.00;61375.16;4910139;28;20766;-28
2022/08/16 04:14:25;;;;;;;3.05;2.30;;;;;;;-148.56;100.00;61375.16;4913509;28;20030;-31
2022/08/16 04:16:50;;;;;;;5.30;2.15;;;;;;;-148.56;100.00;61375.16;4922907;28;20982;-27
2022/08/16 04:19:16;;;;;;;2.92;2.08;;;;;;;-148.56;100.00;61375.16;4918734;28;20077;-30
2022/08/16 04:21:41;;;;;;;4.65;2.50;;;;;;;-148.56;100.00;61375.16;4927601;28;20948;-26
2022/08/16 04:24:07;;;;;;;4.68;2.50;;;;;;;-148.56;100.00;61375.16;4917970;28;20069;-30
2022/08/16 04:26:32;;;;;;;3.72;2.50;;;;;;;-148.56;100.00;61375.16;4912259;28;20425;-30
2022/08/16 04:28:59;;;;;;;4.07;2.20;;;;;;;-148.56;100.00;61375.16;4918072;28;20855;-31
2022/08/16 04:31:24;;;;;;;3.00;2.13;;;;;;;-148.56;100.00;61375.16;4923008;28;20493;-31
2022/08/16 04:33:51;;;;;;;3.10;2.28;;;;;;;-148.56;100.00;61375.16;4910447;28;20386;-29
2022/08/16 04:36:17;;;;;;;5.07;2.03;;;;;;;-148.56;100.00;61375.16;4926443;28;20112;-30
2022/08/16 04:38:42;;;;;;;3.17;2.30;;;;;;;-148.56;100.00;61375.16;4907936;28;20047;-26
2022/08/16 04:41:08;;;;;;;2.83;2.30;;;;;;;-148.56;100.00;61375.16;4921014;28;20137;-29
2022/08/16 04:43:37;;;;;;;5.80;2.17;;;;;;;-148.56;100.00;61375.16;4921995;28;20899;-32
2022/08/16 04:46:03;;;;;;;4.65;2.45;;;;;;;-148.56;100.00;61375.16;4918020;28;20022;-28
2022/08/16 04:48:28;;;;;;;2.90;2.20;;;;;;;-148.56;100.00;61375.16;4925318;28;20034;-31
2022/08/16 04:50:53;;;;;;;6.80;2.67;;;;;;;-148.56;100.00;61375.16;4910404;28;20045;-30
2022/08/16 04:53:19;;;;;;;6.35;2.47;;;;;;;-148.56;100.00;61375.16;4908579;28;20022;-28
2022/08/16 04:55:45;;;;;;;3.80;2.40;;;;;;;-148.56;100.00;61375.16;4912961;28;20037;-29
2022/08/16 04:58:10;;;;;;;4.25;2.30;;;;;;;-148.56;100.00;61375.16;4921019;28;20041;-28
2022/08/16 05:00:36;;;;;;;3.95;2.20;;;;;;;-148.56;100.00;61375.16;4915551;28;20132;-31
2022/08/16 05:03:04;;;;;;;3.70;2.03;;;;;;;-148.56;100.00;61375.16;4917376;28;20092;-31
2022/08/16 05:05:30;;;;;;;5.68;2.28;;;;;;;-148.56;100.00;61375.16;4916871;28;20026;-29
2022/08/16 05:07:55;;;;;;;3.60;2.20;;;;;;;-148.56;100.00;61375.16;4922917;28;20040;-32
2022/08/16 05:10:21;;;;;;;5.20;2.42;;;;;;;-148.56;100.00;61375.16;4918795;28;20656;-30
2022/08/16 05:12:46;;;;;;;6.28;2.30;;;;;;;-148.56;100.00;61375.16;4926762;28;20050;-31
2022/08/16 05:15:12;;;;;;;6.65;2.25;;;;;;;-148.56;100.00;61375.16;4911902;28;20052;-33
2022/08/16 05:17:37;;;;;;;5.50;2.40;;;;;;;-148.56;100.00;61375.16;4925556;28;20107;-30
2022/08/16 05:20:04;;;;;;;6.25;2.50;;;;;;;-148.56;100.00;61375.16;4929310;28;20026;-30
2022/08/16 05:22:29;;;;;;;4.43;2.38;;;;;;;-148.56;100.00;61375.16;4920177;28;20026;-28
2022/08/16 05:24:55;;;;;;;5.20;2.55;;;;;;;-148.56;100.00;61375.16;4918037;28;20869;-29
2022/08/16 05:27:20;;;;;;;8.63;3.03;;;;;;;-148.56;100.00;61375.16;4908148;28;20859;-31
2022/08/16 05:29:46;;;;;;;4.20;2.50;;;;;;;-148.56;100.00;61375.16;4913888;28;20203;-33
2022/08/16 05:32:11;;;;;;;8.65;2.90;;;;;;;-148.56;100.00;61375.16;4921102;28;20805;-33
2022/08/16 05:34:36;;;;;;;6.47;2.80;;;;;;;-148.56;100.00;61375.16;4923281;28;20362;-29
2022/08/16 05:37:02;;;;;;;3.88;2.65;;;;;;;-148.56;100.00;61375.16;4917951;28;20031;-31
2022/08/16 05:39:27;;;;;;;4.10;2.80;;;;;;;-148.56;100.00;61375.16;4919028;28;20038;-29
2022/08/16 05:41:53;;;;;;;5.63;2.53;;;;;;;-148.56;100.00;61375.16;4909111;28;20527;-29
2022/08/16 05:44:19;;;;;;;7.32;3.00;;;;;;;-148.56;100.00;61375.16;4909863;28;20872;-32
2022/08/16 05:46:44;;;;;;;5.68;2.60;;;;;;;-148.56;100.00;61375.16;4916138;28;20034;-30
2022/08/16 05:49:15;;;;;;;5.78;2.67;;;;;;;-148.56;100.00;61375.16;4913750;28;20045;-27
2022/08/16 05:51:41;;;;;;;8.73;2.90;;;;;;;-148.56;100.00;61375.16;4920768;28;20792;-31
2022/08/16 05:54:07;;;;;;;4.22;2.80;;;;;;;-148.56;100.00;61375.16;4921640;28;20034;-31
2022/08/16 05:56:32;;;;;;;4.05;2.35;;;;;;;-148.56;100.00;61375.16;4920539;28;20037;-30
2022/08/16 05:58:57;;;;;;;4.65;2.35;;;;;;;-148.56;100.00;61375.16;4914040;28;20850;-31
2022/08/16 06:01:23;;;;;;;5.53;2.30;;;;;;;-148.56;100.00;61375.16;4909073;28;20268;-29
2022/08/16 06:03:48;;;;;;;4.40;2.75;;;;;;;-148.56;100.00;61375.16;4923967;28;21471;-28
2022/08/16 06:06:14;;;;;;;4.30;2.55;;;;;;;-148.56;100.00;61375.16;4922811;28;20045;-33
2022/08/16 06:08:39;;;;;;;5.35;2.60;;;;;;;-148.56;100.00;61375.16;4928143;28;20034;-28
2022/08/16 06:11:06;;;;;;;4.53;2.80;;;;;;;-148.56;100.00;61375.16;4914799;28;20545;-30
2022/08/16 06:13:33;;;;;;;4.22;2.50;;;;;;;-148.56;100.00;61375.16;4922159;28;20045;-30
2022/08/16 06:15:58;;;;;;;4.95;2.40;;;;;;;-148.56;100.00;61375.16;4920981;28;20041;-32
2022/08/16 06:18:24;;;;;;;4.18;2.40;;;;;;;-148.56;100.00;61375.16;4923177;28;20253;-30
2022/08/16 06:20:50;;;;;;;4.28;2.30;;;;;;;-148.56;100.00;61375.16;4920126;28;20925;-28
2022/08/16 06:23:16;;;;;;;4.30;2.58;;;;;;;-148.56;100.00;61375.16;4924370;28;20023;-31
2022/08/16 06:25:41;;;;;;;3.58;2.53;;;;;;;-148.56;100.00;61375.16;4926201;28;20049;-32
2022/08/16 06:28:08;;;;;;;3.53;2.40;;;;;;;-148.56;100.00;61375.16;4925892;28;20474;-30
2022/08/16 06:30:33;;;;;;;5.90;2.72;;;;;;;-148.56;100.00;61375.16;4917398;28;20049;-28
2022/08/16 06:32:59;;;;;;;12.30;2.58;;;;;;;-148.56;100.00;61375.16;4909941;28;20727;-32
2022/08/16 06:35:25;;;;;;;17.38;2.67;;;;;;;-148.56;100.00;61375.16;4915341;28;20030;-32
2022/08/16 06:37:50;;;;;;;18.50;3.40;;;;;;;-148.56;100.00;61375.16;4916568;28;20139;-30
2022/08/16 06:40:16;;;;;;;16.73;3.67;;;;;;;-148.56;100.00;61375.16;4902970;28;20048;-35
2022/08/16 06:42:41;;;;;;;20.42;3.72;;;;;;;-148.56;100.00;61375.16;4905249;28;20033;-28
2022/08/16 06:45:07;;;;;;;10.55;3.10;;;;;;;-148.56;100.00;61375.16;4918615;28;20660;-27
2022/08/16 06:47:32;;;;;;;9.07;3.28;;;;;;;-148.56;100.00;61375.16;4920622;28;20031;-28
2022/08/16 06:49:58;;;;;;;7.75;3.03;;;;;;;-148.56;100.00;61375.16;4920267;28;20050;-28
2022/08/16 06:52:23;;;;;;;8.00;3.30;;;;;;;-148.56;100.00;61375.16;4931079;28;20653;-28
2022/08/16 06:54:48;;;;;;;12.75;3.20;;;;;;;-148.56;100.00;61375.16;4918516;28;20034;-35
2022/08/16 06:57:16;;;;;;;7.13;3.22;;;;;;;-148.56;100.00;61375.16;4902097;28;20958;-32
2022/08/16 06:59:42;;;;;;;7.50;3.08;;;;;;;-148.56;100.00;61375.16;4920366;28;20034;-29
2022/08/16 07:02:08;;;;;;;7.65;3.13;;;;;;;-148.56;100.00;61375.16;4912430;28;20057;-30
2022/08/16 07:04:33;;;;;;;4.82;2.83;;;;;;;-148.56;100.00;61375.16;4906448;28;20485;-29
2022/08/16 07:06:59;;;;;;;10.77;3.05;;;;;;;-148.56;100.00;61375.16;4910382;28;20034;-30
2022/08/16 07:09:24;;;;;;;7.22;3.40;;;;;;;-148.56;100.00;61375.16;4922031;28;20549;-32
2022/08/16 07:11:50;;;;;;;4.30;2.80;;;;;;;-148.56;100.00;61375.16;4909655;28;20022;-33
2022/08/16 07:14:15;;;;;;;9.45;3.20;;;;;;;-148.56;100.00;61375.16;4914006;28;20465;-32
2022/08/16 07:16:41;;;;;;;5.88;2.97;;;;;;;-148.56;100.00;61375.16;4913833;28;20034;-27
2022/08/16 07:19:07;;;;;;;5.47;3.03;;;;;;;-148.56;100.00;61375.16;4908385;28;22255;-28
2022/08/16 07:21:35;;;;;;;9.38;3.25;;;;;;;-148.56;100.00;61375.16;4910350;28;20032;-30
2022/08/16 07:24:02;;;;;;;6.45;3.00;;;;;;;-148.56;100.00;61375.16;4916768;28;20030;-28
2022/08/16 07:26:28;;;;;;;11.35;3.10;;;;;;;-148.56;100.00;61375.16;4915261;28;21264;-30
2022/08/16 07:28:53;;;;;;;12.75;3.53;;;;;;;-148.56;100.00;61375.16;4915908;28;20096;-31
2022/08/16 07:31:18;;;;;;;12.63;3.35;;;;;;;-148.56;100.00;61375.16;4918657;28;20124;-30
2022/08/16 07:33:44;;;;;;;11.30;3.50;;;;;;;-148.56;100.00;61375.16;4921714;28;21082;-27
2022/08/16 07:36:10;;;;;;;4.97;2.90;;;;;;;-148.56;100.00;61375.16;4915671;28;20045;-26
2022/08/16 07:38:35;;;;;;;8.23;3.40;;;;;;;-148.56;100.00;61375.16;4909166;28;20370;-28
2022/08/16 07:41:01;;;;;;;7.63;2.97;;;;;;;-148.56;100.00;61375.16;4914668;28;20062;-26
2022/08/16 07:43:26;;;;;;;9.13;3.55;;;;;;;-148.56;100.00;61375.16;4920375;28;20049;-26
2022/08/16 07:45:52;;;;;;;10.13;3.90;;;;;;;-148.56;100.00;61375.16;4908832;28;20038;-33
2022/08/16 07:48:17;;;;;;;8.38;3.88;;;;;;;-148.56;100.00;61375.16;4915946;28;20088;-31
2022/08/16 07:50:43;;;;;;;7.15;3.58;;;;;;;-148.56;100.00;61375.16;4912126;28;20032;-30
2022/08/16 07:53:08;;;;;;;6.93;3.42;;;;;;;-148.56;100.00;61375.16;4922719;28;20346;-29
2022/08/16 07:55:34;;;;;;;6.82;3.60;;;;;;;-148.56;100.00;61375.16;4911562;28;20026;-28
2022/08/16 07:58:00;;;;;;;8.95;3.70;;;;;;;-148.56;100.00;61375.16;4914597;28;20041;-30
2022/08/16 08:00:25;;;;;;;8.15;3.80;;;;;;;-148.56;100.00;61375.16;4910279;28;20042;-31
2022/08/16 08:02:51;;;;;;;6.95;3.58;;;;;;;-148.56;100.00;61375.16;4911631;28;20030;-28
2022/08/16 08:05:16;;;;;;;8.48;4.00;;;;;;;-148.56;100.00;61375.16;4911420;28;20049;-28
2022/08/16 08:07:42;;;;;;;5.72;3.50;;;;;;;-148.56;100.00;61375.16;4918236;28;20827;-31
2022/08/16 08:10:08;;;;;;;8.52;3.90;;;;;;;-148.56;100.00;61375.16;4913323;28;20026;-29
2022/08/16 08:12:33;;;;;;;8.23;3.55;;;;;;;-148.56;100.00;61375.16;4909361;28;20034;-27
2022/08/16 08:14:59;;;;;;;9.20;3.85;;;;;;;-148.56;100.00;61375.16;4908119;28;21209;-31
2022/08/16 08:17:25;;;;;;;6.03;3.65;;;;;;;-148.56;100.00;61375.16;4917466;28;20050;-29
2022/08/16 08:19:50;;;;;;;6.78;3.53;;;;;;;-148.56;100.00;61375.16;4909210;28;21110;-26
2022/08/16 08:22:15;;;;;;;7.35;3.47;;;;;;;-148.56;100.00;61375.16;4923277;28;20038;-30
2022/08/16 08:24:41;;;;;;;5.90;3.60;;;;;;;-148.56;100.00;61375.16;4920497;28;20026;-30
2022/08/16 08:27:07;;;;;;;6.57;3.25;;;;;;;-148.56;100.00;61375.16;4904129;28;20106;-30
2022/08/16 08:29:32;;;;;;;6.28;3.50;;;;;;;-148.56;100.00;61375.16;4899499;28;20045;-28
2022/08/16 08:31:59;;;;;;;6.97;3.22;;;;;;;-148.56;100.00;61375.16;4911721;28;20112;-30
2022/08/16 08:34:25;;;;;;;7.07;3.40;;;;;;;-148.56;100.00;61375.16;4903376;28;20072;-30
2022/08/16 08:36:50;;;;;;;6.68;3.50;;;;;;;-148.56;100.00;61375.16;4906846;28;20842;-31
2022/08/16 08:39:16;;;;;;;6.45;3.42;;;;;;;-148.56;100.00;61375.16;4912086;28;20030;-26
2022/08/16 08:41:42;;;;;;;8.20;3.33;;;;;;;-148.56;100.00;61375.16;4905751;28;21022;-26
2022/08/16 08:44:07;;;;;;;7.22;3.35;;;;;;;-148.56;100.00;61375.16;4911202;28;20038;-30
2022/08/16 08:46:32;;;;;;;8.30;3.70;;;;;;;-148.56;100.00;61375.16;4906255;28;20276;-28
2022/08/16 08:48:58;;;;;;;7.55;3.72;;;;;;;-148.56;100.00;61375.16;4915813;28;20510;-28
2022/08/16 08:51:24;;;;;;;11.57;4.03;;;;;;;-148.56;100.00;61375.16;4912702;28;20018;-28
2022/08/16 08:53:49;;;;;;;7.55;3.60;;;;;;;-148.56;100.00;61375.16;4910536;28;20030;-30
2022/08/16 08:56:15;;;;;;;6.05;3.28;;;;;;;-148.56;100.00;61375.16;4908317;28;20468;-27
2022/08/16 08:58:40;;;;;;;7.53;3.45;;;;;;;-148.56;100.00;61375.16;4912898;28;21121;-33
2022/08/16 09:01:06;;;;;;;7.90;3.25;;;;;;;-148.56;100.00;61375.16;4917223;28;20125;-32
2022/08/16 09:03:35;;;;;;;5.45;3.08;;;;;;;-148.56;100.00;61375.16;4921418;28;20034;-29
2022/08/16 09:06:01;;;;;;;7.70;3.42;;;;;;;-148.56;100.00;61375.16;4915618;28;20093;-31
2022/08/16 09:08:27;;;;;;;7.63;4.07;;;;;;;-148.56;100.00;61375.16;4909224;28;20037;-26
2022/08/16 09:10:56;;;;;;;5.97;3.17;;;;;;;-148.56;100.00;61375.16;4902726;28;20030;-27
2022/08/16 09:13:23;;;;;;;11.13;3.40;;;;;;;-148.56;100.00;61375.16;4913880;28;20783;-29
2022/08/16 09:15:48;;;;;;;5.90;3.35;;;;;;;-148.56;100.00;61375.16;4923825;28;20045;-29
2022/08/16 09:18:16;;;;;;;9.98;3.65;;;;;;;-148.56;100.00;61375.16;4927430;28;20083;-29
2022/08/16 09:20:42;;;;;;;5.95;3.28;;;;;;;-148.56;100.00;61375.16;4924494;28;20232;-33
2022/08/16 09:23:08;;;;;;;7.65;3.22;;;;;;;-148.56;100.00;61375.16;4913575;28;21055;-29
2022/08/16 09:25:33;;;;;;;6.75;3.38;;;;;;;-148.56;100.00;61375.16;4922184;28;20037;-30
2022/08/16 09:27:59;;;;;;;5.38;3.20;;;;;;;-148.56;100.00;61375.16;4905707;28;20034;-32
2022/08/16 09:30:25;;;;;;;7.20;3.45;;;;;;;-148.56;100.00;61375.16;4913908;28;20225;-31
2022/08/16 09:32:53;;;;;;;10.57;3.58;;;;;;;-148.56;100.00;61375.16;4911049;28;20231;-32
2022/08/16 09:35:20;;;;;;;10.10;3.30;;;;;;;-148.56;100.00;61375.16;4910453;28;20819;-33
2022/08/16 09:37:45;;;;;;;9.93;3.42;;;;;;;-148.56;100.00;61375.16;4912037;28;20089;-31
2022/08/16 09:40:11;;;;;;;16.08;3.60;;;;;;;-148.56;100.00;61375.16;4910846;28;20179;-30
2022/08/16 09:42:36;;;;;;;7.53;3.30;;;;;;;-148.56;100.00;61375.16;4916843;28;20092;-33
2022/08/16 09:45:05;;;;;;;9.15;3.63;;;;;;;-148.56;100.00;61375.16;4919978;28;20400;-33
2022/08/16 09:47:31;;;;;;;11.85;3.50;;;;;;;-148.56;100.00;61375.16;4910795;28;20574;-30
2022/08/16 09:49:56;;;;;;;7.20;3.45;;;;;;;-148.56;100.00;61375.16;4912485;28;20057;-33
2022/08/16 09:52:22;;;;;;;9.43;3.30;;;;;;;-148.56;100.00;61375.16;4922452;28;20174;-29
2022/08/16 09:54:47;;;;;;;8.05;3.42;;;;;;;-148.56;100.00;61375.16;4925288;28;20030;-33
2022/08/16 09:57:13;;;;;;;6.60;3.15;;;;;;;-148.56;100.00;61375.16;4919258;28;21080;-30
2022/08/16 09:59:38;;;;;;;10.75;3.40;;;;;;;-148.56;100.00;61375.16;4918387;28;20451;-34
2022/08/16 10:02:04;;;;;;;9.05;3.20;;;;;;;-148.56;100.00;61375.16;4914917;28;20035;-29
2022/08/16 10:04:30;;;;;;;8.15;3.35;;;;;;;-148.56;100.00;61375.16;4916597;28;20215;-34
2022/08/16 10:06:56;;;;;;;11.73;3.55;;;;;;;-148.56;100.00;61375.16;4922360;28;20042;-29
2022/08/16 10:09:22;;;;;;;6.95;3.20;;;;;;;-148.56;100.00;61375.16;4918057;28;20029;-31
2022/08/16 10:14:31;;;;;;;6.07;3.20;;;;;;;-148.56;100.00;61375.16;4925462;28;20489;-28
2022/08/16 10:16:58;;;;;;;7.07;3.17;;;;;;;-148.56;100.00;61375.16;4916496;28;20026;-29
2022/08/16 10:19:24;;;;;;;10.13;3.55;;;;;;;-148.56;100.00;61375.16;4931049;28;20034;-26
2022/08/16 10:21:49;;;;;;;10.70;3.90;;;;;;;-148.56;100.00;61375.16;4931831;28;20038;-29
2022/08/16 10:24:15;;;;;;;7.82;3.30;;;;;;;-148.56;100.00;61375.16;4922533;28;20038;-29
2022/08/16 10:26:40;;;;;;;8.25;3.50;;;;;;;-148.56;100.00;61375.16;4927447;28;20133;-28
2022/08/16 10:29:05;;;;;;;8.07;3.30;;;;;;;-148.56;100.00;61375.16;4923970;28;20165;-28
2022/08/16 10:31:32;;;;;;;9.13;3.45;;;;;;;-148.56;100.00;61375.16;4919037;28;20857;-25
2022/08/16 10:33:57;;;;;;;12.43;3.53;;;;;;;-148.56;100.00;61375.16;4919284;28;20060;-28
2022/08/16 10:36:23;;;;;;;8.35;3.47;;;;;;;-148.56;100.00;61375.16;4925248;28;20037;-26
2022/08/16 10:38:48;;;;;;;6.60;2.90;;;;;;;-148.56;100.00;61375.16;4920115;28;20029;-29
2022/08/16 10:41:13;;;;;;;9.57;3.42;;;;;;;-148.56;100.00;61375.16;4925308;28;20038;-28
2022/08/16 10:43:39;;;;;;;10.82;3.50;;;;;;;-148.56;100.00;61375.16;4923492;28;20697;-32
2022/08/16 10:46:07;;;;;;;5.70;3.35;;;;;;;-148.56;100.00;61375.16;4912951;28;20030;-31
2022/08/16 10:48:32;;;;;;;5.45;2.95;;;;;;;-148.56;100.00;61375.16;4908687;28;20191;-29
2022/08/16 10:50:58;;;;;;;8.38;3.30;;;;;;;-148.56;100.00;61375.16;4914190;28;20947;-28
2022/08/16 10:53:27;;;;;;;7.60;3.28;;;;;;;-148.56;100.00;61375.16;4926469;28;20030;-31
2022/08/16 10:55:52;;;;;;;11.13;3.40;;;;;;;-148.56;100.00;61375.16;4909116;28;20038;-30
2022/08/16 10:58:18;;;;;;;8.00;3.03;;;;;;;-148.56;100.00;61375.16;4915315;28;20189;-29
2022/08/16 11:00:44;;;;;;;8.05;3.15;;;;;;;-148.56;100.00;61375.16;4915764;28;20030;-27
2022/08/16 11:03:09;;;;;;;11.05;3.58;;;;;;;-148.56;100.00;61375.16;4927390;28;20033;-27
2022/08/16 11:05:36;;;;;;;7.18;3.25;;;;;;;-148.56;100.00;61375.16;4917066;28;21110;-25